Pagina principale
METAR-TAF:

METAR-TAF

Aeroporti :

Caen, Francia

latitudine: 49-11N, longitudine: 000-27W, altezza: 78 m

Osservazione

Il bollettino è stato emesso 30 minuti fa, alle 17:00 UTC
Vento 12 kt da nord-est, variando fra nord e est/nord-est
Temperature 21°C
Umidità 46%
Pressione 1018 hPa
Visibilità: 7000 m

METAR: LFRK 311700Z AUTO 04012KT 010V070 7000 NSC 21/09 Q1018 TEMPO 03018G28KT

Ora: 19:30 (17:30 UTC)

Previsione

Il bollettino è stato emesso 6 ore e 30 minuti fa, alle 11:00 UTC
Previsione valida dal 31 alle 12 UTC al 01 alle 12 UTC
Vento 10 kt da est
Visibilità 10 km o più
nessuna nube inferiore a 1500 m e nessun cumulonembo
Temporaneamente
dal 31 alle 13 UTC al 31 alle 22 UTC
Vento 18 kt da nord/nord-est con raffiche fino a 28 kt

TAF: LFRK 311100Z 3112/0112 10010KT CAVOK TEMPO 3113/3122 03018G28KT

Osservazioni e previsioni meteorologiche di più di 4000 aeroporti (messaggi METAR e TAF).

Le stazioni disponibili sono rappresentate dai dischi gialli e rossi sulla carta.

Puntare il mouse per vedere il nome della stazione.

Clicca sopra per visualizzare le osservazioni e previsioni meteorologiche.

Per cambiare la mappa : fare clic sui pulsanti verdi con una croce nera per ingrandire, il pulsante verde con un trattino per diminuire, o sulla freccia verde per le mappe adiacenti.


METAR-TAF: